createdAt,value
2023-03-06T00:01:21.301Z,96406.28
2023-03-06T00:04:08.516Z,96402.06
2023-03-06T00:06:54.213Z,96397.81
2023-03-06T00:09:39.646Z,96394.22
2023-03-06T00:12:25.020Z,96396.81
2023-03-06T00:15:11.721Z,96393.59
2023-03-06T00:17:58.042Z,96394.41
2023-03-06T00:20:44.444Z,96392.00
2023-03-06T00:23:30.054Z,96390.38
2023-03-06T00:26:15.286Z,96386.16
2023-03-06T00:29:00.983Z,96386.94
2023-03-06T00:31:47.942Z,96379.31
2023-03-06T00:34:33.436Z,96371.50
2023-03-06T00:37:20.192Z,96367.88
2023-03-06T00:40:12.867Z,96368.88
2023-03-06T00:42:58.333Z,96362.03
2023-03-06T00:45:46.369Z,96362.03
2023-03-06T00:48:33.005Z,96349.81
2023-03-06T00:51:21.683Z,96348.78
2023-03-06T00:54:07.116Z,96344.59
2023-03-06T00:56:52.554Z,96347.19
2023-03-06T00:59:38.602Z,96338.34
2023-03-06T01:02:24.247Z,96333.94
2023-03-06T01:05:14.212Z,96328.72
2023-03-06T01:07:59.684Z,96332.34
2023-03-06T01:10:45.305Z,96320.28
2023-03-06T01:13:30.541Z,96324.69
2023-03-06T01:16:18.888Z,96328.09
2023-03-06T01:19:07.223Z,96318.47
2023-03-06T01:21:52.398Z,96311.44
2023-03-06T01:24:37.819Z,96300.22
2023-03-06T01:27:23.313Z,96302.63
2023-03-06T01:30:09.357Z,96297.59
2023-03-06T01:32:55.958Z,96290.34
2023-03-06T01:35:41.589Z,96292.19
2023-03-06T01:38:26.960Z,96290.56
2023-03-06T01:41:15.688Z,96291.97
2023-03-06T01:44:01.259Z,96280.75
2023-03-06T01:46:46.874Z,96277.13
2023-03-06T01:49:36.695Z,96274.53
2023-03-06T01:52:26.216Z,96281.53
2023-03-06T01:55:17.355Z,96280.75
2023-03-06T01:58:15.709Z,96272.91
2023-03-06T02:01:00.973Z,96278.91
2023-03-06T02:03:49.673Z,96270.28
2023-03-06T02:06:38.166Z,96264.47
2023-03-06T02:09:24.095Z,96260.84
2023-03-06T02:12:16.743Z,96262.63
2023-03-06T02:15:02.544Z,96261.06
2023-03-06T02:17:50.322Z,96262.06
2023-03-06T02:21:13.216Z,96265.84
2023-03-06T02:24:24.741Z,96253.59
2023-03-06T02:27:12.440Z,96252.81
2023-03-06T02:29:57.570Z,96247.59
2023-03-06T02:32:43.199Z,96246.75
2023-03-06T02:35:31.524Z,96241.53
2023-03-06T02:38:20.900Z,96233.72
2023-03-06T02:41:08.932Z,96233.50
2023-03-06T02:43:54.332Z,96230.53
2023-03-06T02:46:39.735Z,96233.94
2023-03-06T02:49:26.506Z,96232.34
2023-03-06T02:52:11.996Z,96234.75
2023-03-06T02:54:57.772Z,96229.53
2023-03-06T02:57:43.095Z,96226.91
2023-03-06T03:00:28.559Z,96231.94
2023-03-06T03:03:14.356Z,96212.88
2023-03-06T03:06:01.052Z,96217.09
2023-03-06T03:08:50.152Z,96214.47
2023-03-06T03:11:36.063Z,96215.47
2023-03-06T03:14:21.567Z,96218.09
2023-03-06T03:17:07.364Z,96218.09
2023-03-06T03:19:52.847Z,96217.09
2023-03-06T03:22:41.155Z,96211.88
2023-03-06T03:25:27.290Z,96219.09
2023-03-06T03:28:15.818Z,96205.41
2023-03-06T03:31:06.912Z,96212.25
2023-03-06T03:33:53.051Z,96208.03
2023-03-06T03:36:39.996Z,96203.63
2023-03-06T03:39:27.717Z,96209.03
2023-03-06T03:42:13.294Z,96198.56
2023-03-06T03:44:58.660Z,96195.78
2023-03-06T03:47:44.744Z,96200.00
2023-03-06T03:50:33.499Z,96198.19
2023-03-06T03:53:19.310Z,96188.75
2023-03-06T03:56:05.806Z,96191.38
2023-03-06T03:58:55.777Z,96186.16
2023-03-06T04:01:42.798Z,96179.31
2023-03-06T04:04:28.745Z,96178.31
2023-03-06T04:07:15.225Z,96177.53
2023-03-06T04:10:00.738Z,96161.84
2023-03-06T04:12:47.712Z,96169.88
2023-03-06T04:15:32.980Z,96166.25
2023-03-06T04:18:20.909Z,96164.66
2023-03-06T04:21:08.046Z,96163.03
2023-03-06T04:23:53.429Z,96155.19
2023-03-06T04:26:39.185Z,96151.59
2023-03-06T04:29:24.786Z,96150.81
2023-03-06T04:32:10.977Z,96142.75
2023-03-06T04:34:57.464Z,96136.75
2023-03-06T04:37:43.508Z,96140.34
2023-03-06T04:40:31.309Z,96145.56
2023-03-06T04:43:16.621Z,96130.72
2023-03-06T04:46:02.255Z,96134.31
2023-03-06T04:48:47.733Z,96128.31
2023-03-06T04:51:33.636Z,96121.47
2023-03-06T04:54:19.153Z,96128.31
2023-03-06T04:57:04.958Z,96118.06
2023-03-06T04:59:51.052Z,96120.88
2023-03-06T05:02:36.492Z,96123.50
2023-03-06T05:05:22.352Z,96125.91
2023-03-06T05:08:08.094Z,96125.91
2023-03-06T05:10:58.974Z,96123.50
2023-03-06T05:13:44.501Z,96114.06
2023-03-06T05:16:29.744Z,96118.44
2023-03-06T05:19:15.592Z,96110.63
2023-03-06T05:22:01.146Z,96110.63
2023-03-06T05:24:46.411Z,96111.44
2023-03-06T05:27:32.231Z,96108.84
2023-03-06T05:30:17.900Z,96102.78
2023-03-06T05:33:03.322Z,96100.19
2023-03-06T05:35:49.135Z,96105.22
2023-03-06T05:38:34.955Z,96101.59
2023-03-06T05:41:20.500Z,96116.25
2023-03-06T05:44:05.773Z,96103.19
2023-03-06T05:46:51.087Z,96110.25
2023-03-06T05:49:37.009Z,96110.25
2023-03-06T05:52:22.838Z,96099.78
2023-03-06T05:55:11.648Z,96111.03
2023-03-06T05:57:57.270Z,96113.44
2023-03-06T06:00:42.644Z,96118.47
2023-03-06T06:03:27.991Z,96116.88
2023-03-06T06:06:14.954Z,96110.81
2023-03-06T06:09:00.513Z,96113.44
2023-03-06T06:11:46.061Z,96115.03
2023-03-06T06:14:33.975Z,96118.47
2023-03-06T06:17:20.773Z,96119.06
2023-03-06T06:20:06.867Z,96114.66
2023-03-06T06:22:52.180Z,96112.66
2023-03-06T06:25:37.693Z,96121.09
2023-03-06T06:28:23.233Z,96119.09
2023-03-06T06:31:10.558Z,96115.47
2023-03-06T06:33:56.417Z,96122.31
2023-03-06T06:36:42.228Z,96123.91
2023-03-06T06:39:28.994Z,96115.28
2023-03-06T06:42:30.514Z,96114.47
2023-03-06T06:45:18.635Z,96114.28
2023-03-06T06:48:04.006Z,96112.28
2023-03-06T06:50:56.036Z,96105.84
2023-03-06T06:53:41.226Z,96108.88
2023-03-06T06:56:26.564Z,96112.69
2023-03-06T06:59:17.035Z,96112.09
2023-03-06T07:02:03.158Z,96107.84
2023-03-06T07:05:02.583Z,96109.06
2023-03-06T07:07:50.942Z,96098.59
2023-03-06T07:10:39.399Z,96101.41
2023-03-06T07:13:25.126Z,96100.59
2023-03-06T07:16:11.185Z,96102.03
2023-03-06T07:18:57.141Z,96107.44
2023-03-06T07:21:42.688Z,96105.25
2023-03-06T07:24:28.609Z,96105.63
2023-03-06T07:27:14.364Z,96112.66
2023-03-06T07:29:59.773Z,96104.22
2023-03-06T07:32:45.365Z,96104.59
2023-03-06T07:35:30.829Z,96095.56
2023-03-06T07:38:17.161Z,96102.97
2023-03-06T07:41:02.872Z,96100.97
2023-03-06T07:43:48.387Z,96111.00
2023-03-06T07:46:35.695Z,96097.75
2023-03-06T07:49:21.586Z,96097.31
2023-03-06T07:52:07.452Z,96108.78
2023-03-06T07:54:52.836Z,96100.13
2023-03-06T07:57:38.842Z,96102.50
2023-03-06T08:00:24.709Z,96111.13
2023-03-06T08:03:14.949Z,96103.84
2023-03-06T08:06:11.580Z,96106.03
2023-03-06T08:08:57.390Z,96102.38
2023-03-06T08:11:43.062Z,96105.53
2023-03-06T08:14:28.559Z,96104.50
2023-03-06T08:17:14.365Z,96105.09
2023-03-06T08:19:59.609Z,96102.22
2023-03-06T08:22:45.606Z,96105.81
2023-03-06T08:25:31.158Z,96101.16
2023-03-06T08:28:16.453Z,96114.19
2023-03-06T08:31:21.254Z,96105.69
2023-03-06T08:34:09.654Z,96102.88
2023-03-06T08:36:55.465Z,96102.66
2023-03-06T08:39:41.291Z,96111.91
2023-03-06T08:42:26.814Z,96109.88
2023-03-06T08:45:12.189Z,96124.97
2023-03-06T08:47:57.472Z,96117.47
2023-03-06T08:50:42.740Z,96115.03
2023-03-06T08:53:42.179Z,96118.41
2023-03-06T08:56:33.635Z,96117.59
2023-03-06T08:59:19.246Z,96123.63
2023-03-06T09:02:05.657Z,96124.81
2023-03-06T09:04:51.165Z,96122.56
2023-03-06T09:07:36.780Z,96122.53
2023-03-06T09:10:25.046Z,96117.44
2023-03-06T09:13:10.434Z,96113.72
2023-03-06T09:15:55.906Z,96110.25
2023-03-06T09:18:41.737Z,96113.69
2023-03-06T09:21:28.628Z,96107.59
2023-03-06T09:24:14.093Z,96110.13
2023-03-06T09:26:59.795Z,96113.06
2023-03-06T09:29:45.394Z,96108.91
2023-03-06T09:32:30.958Z,96101.56
2023-03-06T09:35:18.698Z,96096.09
2023-03-06T09:38:04.163Z,96094.72
2023-03-06T09:40:58.556Z,96093.47
2023-03-06T09:43:46.962Z,96096.88
2023-03-06T09:47:02.323Z,96103.53
2023-03-06T09:50:10.487Z,96099.19
2023-03-06T09:53:06.169Z,96097.06
2023-03-06T09:56:20.501Z,96103.69
2023-03-06T09:59:17.564Z,96100.41
2023-03-06T10:02:16.061Z,96097.09
2023-03-06T10:05:06.745Z,96099.41
2023-03-06T10:08:05.445Z,96099.78
2023-03-06T10:10:57.719Z,96104.81
2023-03-06T10:13:46.666Z,96099.53
2023-03-06T10:16:33.688Z,96094.75
2023-03-06T10:19:20.864Z,96090.44
2023-03-06T10:22:12.433Z,96086.59
2023-03-06T10:25:21.411Z,96086.34
2023-03-06T10:28:19.348Z,96079.97
2023-03-06T10:31:28.027Z,96091.56
2023-03-06T10:34:32.988Z,96085.41
2023-03-06T10:37:20.910Z,96089.63
2023-03-06T10:40:14.421Z,96090.66
2023-03-06T10:43:11.172Z,96090.53
2023-03-06T10:45:57.260Z,96088.19
2023-03-06T10:48:42.827Z,96077.91
2023-03-06T10:51:29.614Z,96076.47
2023-03-06T10:54:15.120Z,96080.22
2023-03-06T10:57:19.299Z,96073.38
2023-03-06T11:00:23.145Z,96067.09
2023-03-06T11:03:20.530Z,96060.91
2023-03-06T11:06:13.389Z,96056.78
2023-03-06T11:09:23.817Z,96056.22
2023-03-06T11:12:21.895Z,96047.66
2023-03-06T11:15:10.213Z,96041.84
2023-03-06T11:18:00.760Z,96043.09
2023-03-06T11:20:52.587Z,96037.72
2023-03-06T11:23:47.289Z,96029.13
2023-03-06T11:26:50.458Z,96038.63
2023-03-06T11:29:51.718Z,96033.25
2023-03-06T11:32:45.426Z,96027.56
2023-03-06T11:35:35.904Z,96027.75
2023-03-06T11:38:45.627Z,96024.56
2023-03-06T11:41:50.496Z,96027.66
2023-03-06T11:45:01.302Z,96021.81
2023-03-06T11:47:59.440Z,96025.22
2023-03-06T11:51:02.322Z,96007.63
2023-03-06T11:53:51.007Z,96019.28
2023-03-06T11:56:48.817Z,96022.59
2023-03-06T11:59:47.781Z,96016.06
2023-03-06T12:02:43.949Z,96018.94
2023-03-06T12:05:48.194Z,96016.66
2023-03-06T12:08:43.010Z,96012.31
2023-03-06T12:11:53.662Z,96009.00
2023-03-06T12:14:48.064Z,96013.47
2023-03-06T12:17:56.272Z,96002.38
2023-03-06T12:20:54.213Z,95997.31
2023-03-06T12:23:54.207Z,95992.63
2023-03-06T12:27:01.730Z,95990.56
2023-03-06T12:30:00.616Z,95989.63
2023-03-06T12:33:16.197Z,95987.34
2023-03-06T12:36:16.533Z,95982.19
2023-03-06T12:39:24.540Z,95979.56
2023-03-06T12:42:42.357Z,95975.34
2023-03-06T12:45:37.131Z,95966.66
2023-03-06T12:48:29.519Z,95964.25
2023-03-06T12:51:19.490Z,95963.25
2023-03-06T12:54:05.258Z,95970.47
2023-03-06T12:56:51.870Z,95966.25
2023-03-06T12:59:38.912Z,95967.84
2023-03-06T13:02:39.788Z,95971.53
2023-03-06T13:05:56.656Z,95966.97
2023-03-06T13:08:52.769Z,95977.34
2023-03-06T13:12:09.917Z,95962.06
2023-03-06T13:14:58.452Z,95961.16
2023-03-06T13:17:44.204Z,95962.75
2023-03-06T13:20:35.508Z,95963.53
2023-03-06T13:23:51.722Z,95958.63
2023-03-06T13:26:37.372Z,95954.63
2023-03-06T13:29:37.900Z,95957.38
2023-03-06T13:32:29.954Z,95951.78
2023-03-06T13:35:32.246Z,95960.22
2023-03-06T13:38:34.811Z,95957.22
2023-03-06T13:41:23.306Z,95959.28
2023-03-06T13:44:24.111Z,95956.22
2023-03-06T13:47:32.382Z,95953.47
2023-03-06T13:50:48.902Z,95953.72
2023-03-06T13:54:03.648Z,95944.69
2023-03-06T13:57:07.757Z,95944.34
2023-03-06T14:00:08.047Z,95949.28
2023-03-06T14:02:57.103Z,95935.09
2023-03-06T14:05:45.606Z,95922.53
2023-03-06T14:08:33.283Z,95925.94
2023-03-06T14:11:21.271Z,95930.97
2023-03-06T14:14:10.197Z,95929.16
2023-03-06T14:16:57.335Z,95929.16
2023-03-06T14:19:43.297Z,95929.38
2023-03-06T14:22:28.978Z,95926.41
2023-03-06T14:25:20.573Z,95937.75
2023-03-06T14:28:14.108Z,95951.22
2023-03-06T14:31:02.022Z,95953.38
2023-03-06T14:33:53.866Z,95961.47
2023-03-06T14:36:45.806Z,95953.78
2023-03-06T14:39:42.969Z,95961.72
2023-03-06T14:42:29.550Z,95954.75
2023-03-06T14:45:20.184Z,95955.75
2023-03-06T14:48:06.749Z,95957.59
2023-03-06T14:50:58.519Z,95956.00
2023-03-06T14:53:46.374Z,95963.03
2023-03-06T14:56:36.134Z,95960.66
2023-03-06T14:59:26.238Z,95963.38
2023-03-06T15:02:20.388Z,95971.41
2023-03-06T15:05:17.599Z,95977.19
2023-03-06T15:08:06.932Z,95992.44
2023-03-06T15:11:06.862Z,95996.28
2023-03-06T15:14:05.386Z,96005.78
2023-03-06T15:16:51.006Z,96008.53
2023-03-06T15:19:40.726Z,96001.91
2023-03-06T15:22:41.486Z,96008.25
2023-03-06T15:25:30.272Z,95999.69
2023-03-06T15:28:30.002Z,95990.09
2023-03-06T15:31:31.422Z,95975.88
2023-03-06T15:34:23.745Z,95979.50
2023-03-06T15:37:29.264Z,95982.56
2023-03-06T15:40:20.128Z,95981.53
2023-03-06T15:43:10.528Z,95984.72
2023-03-06T15:45:59.645Z,95982.72
2023-03-06T15:48:57.462Z,95984.94
2023-03-06T15:51:42.831Z,95980.28
2023-03-06T15:54:28.147Z,95982.28
2023-03-06T15:57:24.998Z,95983.88
2023-03-06T16:00:27.355Z,95983.69
2023-03-06T16:03:13.454Z,95984.69
2023-03-06T16:05:58.852Z,95977.88
2023-03-06T16:08:44.917Z,95984.91
2023-03-06T16:11:41.863Z,95983.28
2023-03-06T16:14:29.012Z,95982.72
2023-03-06T16:17:14.916Z,95975.88
2023-03-06T16:20:00.137Z,95980.88
2023-03-06T16:22:46.858Z,95986.13
2023-03-06T16:25:32.426Z,95982.09
2023-03-06T16:28:17.975Z,95979.72
2023-03-06T16:31:03.397Z,95978.69
2023-03-06T16:33:48.689Z,95982.31
2023-03-06T16:36:34.086Z,95978.69
2023-03-06T16:39:22.737Z,95981.50
2023-03-06T16:42:08.570Z,95979.09
2023-03-06T16:44:54.389Z,95970.88
2023-03-06T16:47:40.358Z,95969.88
2023-03-06T16:50:27.255Z,95973.94
2023-03-06T16:53:12.567Z,95972.75
2023-03-06T16:56:00.927Z,95973.97
2023-03-06T16:58:47.674Z,95960.91
2023-03-06T17:01:33.436Z,95969.31
2023-03-06T17:04:18.770Z,95966.09
2023-03-06T17:07:04.218Z,95964.66
2023-03-06T17:09:49.962Z,95965.03
2023-03-06T17:12:35.754Z,95979.50
2023-03-06T17:15:24.496Z,95978.50
2023-03-06T17:18:09.813Z,95988.78
2023-03-06T17:20:55.640Z,95989.56
2023-03-06T17:23:41.157Z,95994.34
2023-03-06T17:26:26.573Z,96009.66
2023-03-06T17:29:12.189Z,96008.84
2023-03-06T17:31:57.644Z,96010.25
2023-03-06T17:34:43.061Z,96010.81
2023-03-06T17:37:29.008Z,96016.28
2023-03-06T17:40:15.725Z,96022.50
2023-03-06T17:43:01.227Z,96024.31
2023-03-06T17:45:47.540Z,96032.16
2023-03-06T17:48:33.127Z,96029.56
2023-03-06T17:51:18.860Z,96030.34
2023-03-06T17:54:04.726Z,96036.78
2023-03-06T17:56:50.240Z,96034.59
2023-03-06T17:59:36.011Z,96040.03
2023-03-06T18:02:21.529Z,96036.84
2023-03-06T18:05:07.496Z,96040.84
2023-03-06T18:07:53.010Z,96045.69
2023-03-06T18:10:43.346Z,96041.50
2023-03-06T18:13:31.114Z,96042.88
2023-03-06T18:16:20.111Z,96043.31
2023-03-06T18:19:05.926Z,96041.09
2023-03-06T18:21:51.230Z,96054.16
2023-03-06T18:24:36.699Z,96045.53
2023-03-06T18:27:22.383Z,96054.16
2023-03-06T18:30:08.513Z,96061.00
2023-03-06T18:32:54.689Z,96060.38
2023-03-06T18:35:40.799Z,96060.38
2023-03-06T18:38:26.321Z,96052.53
2023-03-06T18:41:13.202Z,96055.97
2023-03-06T18:44:00.376Z,96056.78
2023-03-06T18:46:45.733Z,96053.38
2023-03-06T18:49:31.237Z,96052.38
2023-03-06T18:52:16.507Z,96052.38
2023-03-06T18:55:01.991Z,96055.78
2023-03-06T18:57:47.186Z,96050.34
2023-03-06T19:00:32.515Z,96045.09
2023-03-06T19:03:18.327Z,96045.91
2023-03-06T19:06:06.170Z,96053.75
2023-03-06T19:08:51.790Z,96047.50
2023-03-06T19:11:37.289Z,96050.94
2023-03-06T19:14:22.705Z,96047.72
2023-03-06T19:17:08.297Z,96051.16
2023-03-06T19:19:55.056Z,96049.13
2023-03-06T19:22:40.297Z,96047.50
2023-03-06T19:25:25.756Z,96052.72
2023-03-06T19:28:10.999Z,96049.13
2023-03-06T19:30:57.123Z,96055.94
2023-03-06T19:33:43.219Z,96056.78
2023-03-06T19:36:33.542Z,96058.34
2023-03-06T19:39:19.517Z,96054.75
2023-03-06T19:42:04.973Z,96060.78
2023-03-06T19:44:50.194Z,96055.56
2023-03-06T19:47:35.643Z,96060.78
2023-03-06T19:50:21.029Z,96062.41
2023-03-06T19:53:07.812Z,96057.16
2023-03-06T19:55:53.205Z,96059.78
2023-03-06T19:58:40.628Z,96057.16
2023-03-06T20:01:27.063Z,96062.41
2023-03-06T20:04:12.425Z,96060.78
2023-03-06T20:06:57.669Z,96060.19
2023-03-06T20:09:43.223Z,96067.22
2023-03-06T20:12:28.940Z,96069.03
2023-03-06T20:15:14.630Z,96063.00
2023-03-06T20:17:59.960Z,96065.63
2023-03-06T20:20:45.494Z,96053.34
2023-03-06T20:23:31.539Z,96066.41
2023-03-06T20:26:16.853Z,96059.38
2023-03-06T20:29:02.283Z,96057.56
2023-03-06T20:31:47.730Z,96061.41
2023-03-06T20:34:33.138Z,96061.00
2023-03-06T20:37:18.757Z,96055.16
2023-03-06T20:40:05.207Z,96062.44
2023-03-06T20:42:50.648Z,96066.03
2023-03-06T20:45:35.854Z,96064.81
2023-03-06T20:48:21.164Z,96068.66
2023-03-06T20:51:16.326Z,96070.88
2023-03-06T20:54:02.616Z,96069.06
2023-03-06T20:56:49.223Z,96060.81
2023-03-06T20:59:34.448Z,96062.84
2023-03-06T21:02:19.899Z,96059.84
2023-03-06T21:05:05.620Z,96059.44
2023-03-06T21:07:52.217Z,96059.63
2023-03-06T21:10:38.224Z,96063.28
2023-03-06T21:13:23.860Z,96063.44
2023-03-06T21:16:18.152Z,96063.88
2023-03-06T21:19:03.894Z,96053.63
2023-03-06T21:21:49.232Z,96055.41
2023-03-06T21:24:35.803Z,96049.41
2023-03-06T21:27:21.153Z,96045.97
2023-03-06T21:30:07.374Z,96053.81
2023-03-06T21:32:53.481Z,96047.59
2023-03-06T21:35:44.138Z,96054.22
2023-03-06T21:38:30.374Z,96049.00
2023-03-06T21:41:28.485Z,96042.75
2023-03-06T21:44:13.832Z,96037.31
2023-03-06T21:46:59.059Z,96032.72
2023-03-06T21:49:44.584Z,96043.56
2023-03-06T21:52:29.982Z,96032.91
2023-03-06T21:55:15.460Z,96029.06
2023-03-06T21:58:01.334Z,96039.13
2023-03-06T22:00:46.990Z,96029.09
2023-03-06T22:03:32.696Z,96030.47
2023-03-06T22:06:21.121Z,96022.22
2023-03-06T22:09:07.211Z,96027.06
2023-03-06T22:11:52.815Z,96016.38
2023-03-06T22:14:38.206Z,96017.78
2023-03-06T22:17:23.612Z,96013.16
2023-03-06T22:20:10.049Z,96008.56
2023-03-06T22:22:55.575Z,96010.16
2023-03-06T22:25:41.088Z,96010.94
2023-03-06T22:28:27.237Z,96006.50
2023-03-06T22:31:23.813Z,96008.13
2023-03-06T22:34:09.645Z,96004.94
2023-03-06T22:36:55.275Z,95998.88
2023-03-06T22:39:41.349Z,95998.09
2023-03-06T22:42:26.610Z,95995.28
2023-03-06T22:45:12.540Z,96000.50
2023-03-06T22:48:10.177Z,95996.06
2023-03-06T22:50:56.665Z,95985.59
2023-03-06T22:53:42.616Z,95977.59
2023-03-06T22:56:28.591Z,95986.00
2023-03-06T22:59:14.186Z,95979.78
2023-03-06T23:01:59.442Z,95973.75
2023-03-06T23:04:44.789Z,95971.94
2023-03-06T23:07:30.410Z,95968.31
2023-03-06T23:10:21.575Z,95977.75
2023-03-06T23:13:25.920Z,95974.31
2023-03-06T23:16:30.152Z,95968.31
2023-03-06T23:19:34.516Z,95969.09
2023-03-06T23:22:38.628Z,95964.69
2023-03-06T23:25:44.003Z,95964.69
2023-03-06T23:28:29.827Z,95954.25
2023-03-06T23:31:21.207Z,95960.25
2023-03-06T23:34:06.606Z,95959.47
2023-03-06T23:36:51.971Z,95956.25
2023-03-06T23:39:39.013Z,95958.66
2023-03-06T23:42:24.261Z,95959.47
2023-03-06T23:45:10.126Z,95960.47
2023-03-06T23:47:55.789Z,95962.47
2023-03-06T23:50:41.384Z,95961.91
2023-03-06T23:53:27.245Z,95971.53
2023-03-06T23:56:13.167Z,95962.91
2023-03-06T23:58:58.593Z,95963.13
